sensor_id;sensor_type;location;lat;lon;timestamp;P1;durP1;ratioP1;P2;durP2;ratioP2
8938;SDS011;4504;48.810;9.172;2023-08-20T00:01:19;113.70;;;4.00;;
8938;SDS011;4504;48.810;9.172;2023-08-20T00:03:50;109.80;;;4.23;;
8938;SDS011;4504;48.810;9.172;2023-08-20T00:06:18;109.40;;;3.57;;
8938;SDS011;4504;48.810;9.172;2023-08-20T00:08:46;109.87;;;3.70;;
8938;SDS011;4504;48.810;9.172;2023-08-20T00:11:13;109.30;;;4.03;;
8938;SDS011;4504;48.810;9.172;2023-08-20T00:13:41;110.87;;;4.23;;
8938;SDS011;4504;48.810;9.172;2023-08-20T00:16:09;110.33;;;3.70;;
8938;SDS011;4504;48.810;9.172;2023-08-20T00:18:36;109.17;;;4.13;;
8938;SDS011;4504;48.810;9.172;2023-08-20T00:21:04;108.67;;;3.30;;
8938;SDS011;4504;48.810;9.172;2023-08-20T00:23:32;110.90;;;3.87;;
8938;SDS011;4504;48.810;9.172;2023-08-20T00:26:00;110.50;;;4.07;;
8938;SDS011;4504;48.810;9.172;2023-08-20T00:28:27;108.43;;;3.80;;
8938;SDS011;4504;48.810;9.172;2023-08-20T00:30:56;110.00;;;3.90;;
8938;SDS011;4504;48.810;9.172;2023-08-20T00:33:23;108.20;;;3.40;;
8938;SDS011;4504;48.810;9.172;2023-08-20T00:35:51;109.37;;;4.03;;
8938;SDS011;4504;48.810;9.172;2023-08-20T00:38:18;110.43;;;3.43;;
8938;SDS011;4504;48.810;9.172;2023-08-20T00:40:44;108.30;;;3.50;;
8938;SDS011;4504;48.810;9.172;2023-08-20T00:43:11;108.90;;;3.50;;
8938;SDS011;4504;48.810;9.172;2023-08-20T00:45:39;109.07;;;3.47;;
8938;SDS011;4504;48.810;9.172;2023-08-20T00:48:08;108.63;;;3.33;;
8938;SDS011;4504;48.810;9.172;2023-08-20T00:50:37;108.07;;;3.30;;
8938;SDS011;4504;48.810;9.172;2023-08-20T00:53:05;107.83;;;3.17;;
8938;SDS011;4504;48.810;9.172;2023-08-20T00:55:33;109.17;;;3.80;;
8938;SDS011;4504;48.810;9.172;2023-08-20T00:58:00;109.30;;;3.90;;
8938;SDS011;4504;48.810;9.172;2023-08-20T01:00:27;109.90;;;3.83;;
8938;SDS011;4504;48.810;9.172;2023-08-20T01:02:54;119.17;;;5.50;;
8938;SDS011;4504;48.810;9.172;2023-08-20T01:05:23;109.37;;;3.60;;
8938;SDS011;4504;48.810;9.172;2023-08-20T01:07:57;109.90;;;3.80;;
8938;SDS011;4504;48.810;9.172;2023-08-20T01:10:33;109.20;;;4.40;;
8938;SDS011;4504;48.810;9.172;2023-08-20T01:13:06;111.17;;;4.27;;
8938;SDS011;4504;48.810;9.172;2023-08-20T01:15:34;108.47;;;3.43;;
8938;SDS011;4504;48.810;9.172;2023-08-20T01:18:01;110.57;;;3.90;;
8938;SDS011;4504;48.810;9.172;2023-08-20T01:20:31;110.63;;;4.20;;
8938;SDS011;4504;48.810;9.172;2023-08-20T01:23:15;110.43;;;4.10;;
8938;SDS011;4504;48.810;9.172;2023-08-20T01:26:13;109.07;;;3.30;;
8938;SDS011;4504;48.810;9.172;2023-08-20T01:28:59;109.23;;;3.90;;
8938;SDS011;4504;48.810;9.172;2023-08-20T01:31:26;110.97;;;4.00;;
8938;SDS011;4504;48.810;9.172;2023-08-20T01:33:54;109.90;;;3.73;;
8938;SDS011;4504;48.810;9.172;2023-08-20T01:36:21;109.43;;;3.67;;
8938;SDS011;4504;48.810;9.172;2023-08-20T01:38:48;110.70;;;3.57;;
8938;SDS011;4504;48.810;9.172;2023-08-20T01:41:16;111.07;;;3.80;;
8938;SDS011;4504;48.810;9.172;2023-08-20T01:43:43;114.30;;;4.00;;
8938;SDS011;4504;48.810;9.172;2023-08-20T01:46:11;110.10;;;4.00;;
8938;SDS011;4504;48.810;9.172;2023-08-20T01:48:39;111.07;;;4.00;;
8938;SDS011;4504;48.810;9.172;2023-08-20T01:51:06;109.80;;;4.00;;
8938;SDS011;4504;48.810;9.172;2023-08-20T01:53:33;110.07;;;4.30;;
8938;SDS011;4504;48.810;9.172;2023-08-20T01:56:00;110.53;;;3.97;;
8938;SDS011;4504;48.810;9.172;2023-08-20T01:58:28;112.07;;;4.70;;
8938;SDS011;4504;48.810;9.172;2023-08-20T02:00:57;111.77;;;4.47;;
8938;SDS011;4504;48.810;9.172;2023-08-20T02:03:25;111.70;;;4.30;;
8938;SDS011;4504;48.810;9.172;2023-08-20T02:05:52;119.83;;;4.30;;
8938;SDS011;4504;48.810;9.172;2023-08-20T02:08:19;113.10;;;4.77;;
8938;SDS011;4504;48.810;9.172;2023-08-20T02:10:46;111.03;;;4.30;;
8938;SDS011;4504;48.810;9.172;2023-08-20T02:13:13;111.70;;;4.07;;
8938;SDS011;4504;48.810;9.172;2023-08-20T02:15:40;112.03;;;4.80;;
8938;SDS011;4504;48.810;9.172;2023-08-20T02:18:07;113.47;;;4.93;;
8938;SDS011;4504;48.810;9.172;2023-08-20T02:20:35;111.30;;;4.17;;
8938;SDS011;4504;48.810;9.172;2023-08-20T02:23:02;111.63;;;4.40;;
8938;SDS011;4504;48.810;9.172;2023-08-20T02:25:30;113.43;;;4.50;;
8938;SDS011;4504;48.810;9.172;2023-08-20T02:27:58;110.30;;;4.50;;
8938;SDS011;4504;48.810;9.172;2023-08-20T02:30:25;112.80;;;4.50;;
8938;SDS011;4504;48.810;9.172;2023-08-20T02:32:52;110.00;;;4.37;;
8938;SDS011;4504;48.810;9.172;2023-08-20T02:35:18;112.20;;;4.37;;
8938;SDS011;4504;48.810;9.172;2023-08-20T02:37:50;112.07;;;4.87;;
8938;SDS011;4504;48.810;9.172;2023-08-20T02:40:17;111.77;;;4.20;;
8938;SDS011;4504;48.810;9.172;2023-08-20T02:42:44;112.27;;;5.00;;
8938;SDS011;4504;48.810;9.172;2023-08-20T02:45:11;111.63;;;4.47;;
8938;SDS011;4504;48.810;9.172;2023-08-20T02:47:38;113.47;;;4.50;;
8938;SDS011;4504;48.810;9.172;2023-08-20T02:50:05;115.20;;;5.20;;
8938;SDS011;4504;48.810;9.172;2023-08-20T02:52:33;112.33;;;4.83;;
8938;SDS011;4504;48.810;9.172;2023-08-20T02:55:01;113.90;;;4.80;;
8938;SDS011;4504;48.810;9.172;2023-08-20T02:57:29;113.27;;;4.80;;
8938;SDS011;4504;48.810;9.172;2023-08-20T02:59:56;112.27;;;5.20;;
8938;SDS011;4504;48.810;9.172;2023-08-20T03:02:23;115.20;;;5.17;;
8938;SDS011;4504;48.810;9.172;2023-08-20T03:04:50;113.87;;;5.43;;
8938;SDS011;4504;48.810;9.172;2023-08-20T03:07:18;115.07;;;5.63;;
8938;SDS011;4504;48.810;9.172;2023-08-20T03:09:45;111.03;;;4.50;;
8938;SDS011;4504;48.810;9.172;2023-08-20T03:12:13;112.33;;;4.77;;
8938;SDS011;4504;48.810;9.172;2023-08-20T03:14:40;115.57;;;5.70;;
8938;SDS011;4504;48.810;9.172;2023-08-20T03:17:07;111.07;;;4.30;;
8938;SDS011;4504;48.810;9.172;2023-08-20T03:19:34;114.37;;;5.00;;
8938;SDS011;4504;48.810;9.172;2023-08-20T03:22:01;113.10;;;5.17;;
8938;SDS011;4504;48.810;9.172;2023-08-20T03:24:28;117.07;;;5.20;;
8938;SDS011;4504;48.810;9.172;2023-08-20T03:26:55;116.77;;;5.60;;
8938;SDS011;4504;48.810;9.172;2023-08-20T03:29:23;113.57;;;4.97;;
8938;SDS011;4504;48.810;9.172;2023-08-20T03:31:50;112.73;;;4.50;;
8938;SDS011;4504;48.810;9.172;2023-08-20T03:34:18;111.93;;;4.47;;
8938;SDS011;4504;48.810;9.172;2023-08-20T03:36:45;112.67;;;5.00;;
8938;SDS011;4504;48.810;9.172;2023-08-20T03:39:12;112.50;;;4.67;;
8938;SDS011;4504;48.810;9.172;2023-08-20T03:41:40;113.37;;;4.57;;
8938;SDS011;4504;48.810;9.172;2023-08-20T03:44:06;112.77;;;4.37;;
8938;SDS011;4504;48.810;9.172;2023-08-20T03:46:35;113.93;;;4.30;;
8938;SDS011;4504;48.810;9.172;2023-08-20T03:49:02;112.47;;;4.50;;
8938;SDS011;4504;48.810;9.172;2023-08-20T03:51:29;114.70;;;5.23;;
8938;SDS011;4504;48.810;9.172;2023-08-20T03:53:56;113.77;;;4.50;;
8938;SDS011;4504;48.810;9.172;2023-08-20T03:56:23;112.80;;;4.70;;
8938;SDS011;4504;48.810;9.172;2023-08-20T03:58:51;113.63;;;5.20;;
8938;SDS011;4504;48.810;9.172;2023-08-20T04:01:19;113.93;;;5.20;;
8938;SDS011;4504;48.810;9.172;2023-08-20T04:03:48;112.30;;;4.60;;
8938;SDS011;4504;48.810;9.172;2023-08-20T04:06:15;113.80;;;5.40;;
8938;SDS011;4504;48.810;9.172;2023-08-20T04:08:42;111.20;;;4.67;;
8938;SDS011;4504;48.810;9.172;2023-08-20T04:11:09;115.60;;;5.63;;
8938;SDS011;4504;48.810;9.172;2023-08-20T04:13:39;115.87;;;5.47;;
8938;SDS011;4504;48.810;9.172;2023-08-20T04:16:08;111.03;;;4.60;;
8938;SDS011;4504;48.810;9.172;2023-08-20T04:18:36;129.00;;;13.07;;
8938;SDS011;4504;48.810;9.172;2023-08-20T04:21:04;116.47;;;6.77;;
8938;SDS011;4504;48.810;9.172;2023-08-20T04:23:32;116.93;;;5.80;;
8938;SDS011;4504;48.810;9.172;2023-08-20T04:25:59;114.03;;;5.10;;
8938;SDS011;4504;48.810;9.172;2023-08-20T04:28:26;112.67;;;4.97;;
8938;SDS011;4504;48.810;9.172;2023-08-20T04:30:53;120.40;;;5.23;;
8938;SDS011;4504;48.810;9.172;2023-08-20T04:33:24;112.60;;;5.07;;
8938;SDS011;4504;48.810;9.172;2023-08-20T04:35:51;112.77;;;4.50;;
8938;SDS011;4504;48.810;9.172;2023-08-20T04:38:20;113.37;;;5.10;;
8938;SDS011;4504;48.810;9.172;2023-08-20T04:40:47;113.67;;;5.10;;
8938;SDS011;4504;48.810;9.172;2023-08-20T04:43:14;112.57;;;4.83;;
8938;SDS011;4504;48.810;9.172;2023-08-20T04:45:41;113.90;;;5.10;;
8938;SDS011;4504;48.810;9.172;2023-08-20T04:48:08;111.80;;;4.70;;
8938;SDS011;4504;48.810;9.172;2023-08-20T04:50:36;112.27;;;4.80;;
8938;SDS011;4504;48.810;9.172;2023-08-20T04:53:03;112.97;;;4.90;;
8938;SDS011;4504;48.810;9.172;2023-08-20T04:55:32;116.00;;;5.13;;
8938;SDS011;4504;48.810;9.172;2023-08-20T04:57:59;113.30;;;5.00;;
8938;SDS011;4504;48.810;9.172;2023-08-20T05:00:25;117.73;;;5.30;;
8938;SDS011;4504;48.810;9.172;2023-08-20T05:03:04;114.53;;;5.30;;
8938;SDS011;4504;48.810;9.172;2023-08-20T05:05:31;113.77;;;5.00;;
8938;SDS011;4504;48.810;9.172;2023-08-20T05:07:58;123.90;;;5.77;;
8938;SDS011;4504;48.810;9.172;2023-08-20T05:10:25;114.50;;;5.40;;
8938;SDS011;4504;48.810;9.172;2023-08-20T05:12:53;114.77;;;5.47;;
8938;SDS011;4504;48.810;9.172;2023-08-20T05:15:20;116.43;;;5.63;;
8938;SDS011;4504;48.810;9.172;2023-08-20T05:17:47;114.03;;;5.47;;
8938;SDS011;4504;48.810;9.172;2023-08-20T05:20:15;113.87;;;5.10;;
8938;SDS011;4504;48.810;9.172;2023-08-20T05:22:43;115.00;;;5.40;;
8938;SDS011;4504;48.810;9.172;2023-08-20T05:25:11;114.37;;;5.47;;
8938;SDS011;4504;48.810;9.172;2023-08-20T05:27:40;112.67;;;5.10;;
8938;SDS011;4504;48.810;9.172;2023-08-20T05:30:08;114.70;;;5.47;;
8938;SDS011;4504;48.810;9.172;2023-08-20T05:32:37;113.47;;;5.30;;
8938;SDS011;4504;48.810;9.172;2023-08-20T05:35:04;114.60;;;6.07;;
8938;SDS011;4504;48.810;9.172;2023-08-20T05:37:32;112.93;;;4.53;;
8938;SDS011;4504;48.810;9.172;2023-08-20T05:39:59;113.17;;;4.97;;
8938;SDS011;4504;48.810;9.172;2023-08-20T05:42:26;112.27;;;4.77;;
8938;SDS011;4504;48.810;9.172;2023-08-20T05:45:00;113.50;;;5.03;;
8938;SDS011;4504;48.810;9.172;2023-08-20T05:47:29;113.60;;;5.63;;
8938;SDS011;4504;48.810;9.172;2023-08-20T05:49:56;114.80;;;5.17;;
8938;SDS011;4504;48.810;9.172;2023-08-20T05:52:23;115.20;;;5.07;;
8938;SDS011;4504;48.810;9.172;2023-08-20T05:54:51;111.67;;;4.23;;
8938;SDS011;4504;48.810;9.172;2023-08-20T05:57:18;111.83;;;4.80;;
8938;SDS011;4504;48.810;9.172;2023-08-20T05:59:45;111.43;;;4.67;;
8938;SDS011;4504;48.810;9.172;2023-08-20T06:02:15;111.70;;;4.30;;
8938;SDS011;4504;48.810;9.172;2023-08-20T06:04:44;113.90;;;5.17;;
8938;SDS011;4504;48.810;9.172;2023-08-20T06:07:11;111.20;;;4.53;;
8938;SDS011;4504;48.810;9.172;2023-08-20T06:09:38;111.47;;;4.63;;
8938;SDS011;4504;48.810;9.172;2023-08-20T06:12:05;114.30;;;4.67;;
8938;SDS011;4504;48.810;9.172;2023-08-20T06:14:32;113.13;;;4.80;;
8938;SDS011;4504;48.810;9.172;2023-08-20T06:16:59;111.40;;;5.17;;
8938;SDS011;4504;48.810;9.172;2023-08-20T06:19:26;109.67;;;4.50;;
8938;SDS011;4504;48.810;9.172;2023-08-20T06:21:55;112.93;;;5.07;;
8938;SDS011;4504;48.810;9.172;2023-08-20T06:24:22;111.20;;;4.07;;
8938;SDS011;4504;48.810;9.172;2023-08-20T06:26:49;110.60;;;4.70;;
8938;SDS011;4504;48.810;9.172;2023-08-20T06:29:17;112.63;;;5.03;;
8938;SDS011;4504;48.810;9.172;2023-08-20T06:31:44;110.40;;;4.60;;
8938;SDS011;4504;48.810;9.172;2023-08-20T06:34:11;110.50;;;4.23;;
8938;SDS011;4504;48.810;9.172;2023-08-20T06:36:38;109.00;;;4.17;;
8938;SDS011;4504;48.810;9.172;2023-08-20T06:39:06;110.87;;;4.60;;
8938;SDS011;4504;48.810;9.172;2023-08-20T06:41:33;119.60;;;4.10;;
8938;SDS011;4504;48.810;9.172;2023-08-20T06:44:01;109.90;;;4.70;;
8938;SDS011;4504;48.810;9.172;2023-08-20T06:46:28;109.30;;;4.20;;
8938;SDS011;4504;48.810;9.172;2023-08-20T06:48:55;111.17;;;4.57;;
8938;SDS011;4504;48.810;9.172;2023-08-20T06:51:22;111.47;;;4.67;;
8938;SDS011;4504;48.810;9.172;2023-08-20T06:53:50;112.47;;;5.40;;
8938;SDS011;4504;48.810;9.172;2023-08-20T06:56:18;111.87;;;4.83;;
8938;SDS011;4504;48.810;9.172;2023-08-20T06:58:45;111.40;;;4.87;;
8938;SDS011;4504;48.810;9.172;2023-08-20T07:01:13;112.27;;;6.07;;
8938;SDS011;4504;48.810;9.172;2023-08-20T07:03:40;113.67;;;5.97;;
8938;SDS011;4504;48.810;9.172;2023-08-20T07:06:09;110.37;;;4.90;;
8938;SDS011;4504;48.810;9.172;2023-08-20T07:08:37;111.27;;;5.03;;
8938;SDS011;4504;48.810;9.172;2023-08-20T07:11:04;115.97;;;4.80;;
8938;SDS011;4504;48.810;9.172;2023-08-20T07:13:33;109.17;;;4.67;;
8938;SDS011;4504;48.810;9.172;2023-08-20T07:16:00;108.70;;;4.30;;
8938;SDS011;4504;48.810;9.172;2023-08-20T07:18:27;110.33;;;4.30;;
8938;SDS011;4504;48.810;9.172;2023-08-20T07:20:54;110.57;;;5.10;;
8938;SDS011;4504;48.810;9.172;2023-08-20T07:23:22;111.97;;;4.73;;
8938;SDS011;4504;48.810;9.172;2023-08-20T07:25:49;111.33;;;4.90;;
8938;SDS011;4504;48.810;9.172;2023-08-20T07:28:18;109.17;;;4.40;;
8938;SDS011;4504;48.810;9.172;2023-08-20T07:31:07;118.73;;;5.00;;
8938;SDS011;4504;48.810;9.172;2023-08-20T07:33:34;110.50;;;5.43;;
8938;SDS011;4504;48.810;9.172;2023-08-20T07:36:01;111.70;;;5.50;;
8938;SDS011;4504;48.810;9.172;2023-08-20T07:38:28;111.60;;;4.70;;
8938;SDS011;4504;48.810;9.172;2023-08-20T07:40:55;109.77;;;4.60;;
8938;SDS011;4504;48.810;9.172;2023-08-20T07:43:22;110.27;;;4.77;;
8938;SDS011;4504;48.810;9.172;2023-08-20T07:45:50;109.57;;;4.37;;
8938;SDS011;4504;48.810;9.172;2023-08-20T07:48:18;113.60;;;5.50;;
8938;SDS011;4504;48.810;9.172;2023-08-20T07:50:45;107.97;;;4.20;;
8938;SDS011;4504;48.810;9.172;2023-08-20T07:53:12;109.23;;;4.50;;
8938;SDS011;4504;48.810;9.172;2023-08-20T07:55:39;111.27;;;5.27;;
8938;SDS011;4504;48.810;9.172;2023-08-20T07:58:06;109.30;;;4.90;;
8938;SDS011;4504;48.810;9.172;2023-08-20T08:00:33;111.13;;;4.63;;
8938;SDS011;4504;48.810;9.172;2023-08-20T08:03:00;109.97;;;4.70;;
8938;SDS011;4504;48.810;9.172;2023-08-20T08:05:29;112.07;;;4.37;;
8938;SDS011;4504;48.810;9.172;2023-08-20T08:07:55;109.17;;;4.80;;
8938;SDS011;4504;48.810;9.172;2023-08-20T08:10:22;109.30;;;4.63;;
8938;SDS011;4504;48.810;9.172;2023-08-20T08:12:49;116.60;;;4.00;;
8938;SDS011;4504;48.810;9.172;2023-08-20T08:15:16;108.00;;;4.20;;
8938;SDS011;4504;48.810;9.172;2023-08-20T08:17:43;114.90;;;4.50;;
8938;SDS011;4504;48.810;9.172;2023-08-20T08:20:11;108.13;;;4.03;;
8938;SDS011;4504;48.810;9.172;2023-08-20T08:22:40;107.37;;;4.10;;
8938;SDS011;4504;48.810;9.172;2023-08-20T08:25:07;108.77;;;4.80;;
8938;SDS011;4504;48.810;9.172;2023-08-20T08:27:34;109.17;;;4.60;;
8938;SDS011;4504;48.810;9.172;2023-08-20T08:30:00;110.87;;;4.50;;
8938;SDS011;4504;48.810;9.172;2023-08-20T08:32:28;108.00;;;4.27;;
8938;SDS011;4504;48.810;9.172;2023-08-20T08:34:55;107.97;;;4.80;;
8938;SDS011;4504;48.810;9.172;2023-08-20T08:37:22;109.30;;;4.90;;
8938;SDS011;4504;48.810;9.172;2023-08-20T08:39:50;111.57;;;4.93;;
8938;SDS011;4504;48.810;9.172;2023-08-20T08:42:17;121.93;;;10.37;;
8938;SDS011;4504;48.810;9.172;2023-08-20T08:44:48;107.60;;;4.20;;
8938;SDS011;4504;48.810;9.172;2023-08-20T08:47:16;109.87;;;4.40;;
8938;SDS011;4504;48.810;9.172;2023-08-20T08:49:44;108.20;;;4.60;;
8938;SDS011;4504;48.810;9.172;2023-08-20T08:52:12;109.27;;;4.70;;
8938;SDS011;4504;48.810;9.172;2023-08-20T08:54:40;107.10;;;4.50;;
8938;SDS011;4504;48.810;9.172;2023-08-20T08:57:08;106.00;;;4.23;;
8938;SDS011;4504;48.810;9.172;2023-08-20T08:59:35;109.27;;;3.97;;
8938;SDS011;4504;48.810;9.172;2023-08-20T09:02:04;106.57;;;4.03;;
8938;SDS011;4504;48.810;9.172;2023-08-20T09:04:34;106.40;;;4.13;;
8938;SDS011;4504;48.810;9.172;2023-08-20T09:07:04;108.97;;;4.73;;
8938;SDS011;4504;48.810;9.172;2023-08-20T09:09:31;106.30;;;4.20;;
8938;SDS011;4504;48.810;9.172;2023-08-20T09:11:58;107.17;;;4.00;;
8938;SDS011;4504;48.810;9.172;2023-08-20T09:14:29;109.33;;;4.73;;
8938;SDS011;4504;48.810;9.172;2023-08-20T09:16:57;105.50;;;4.70;;
8938;SDS011;4504;48.810;9.172;2023-08-20T09:19:27;106.17;;;3.83;;
8938;SDS011;4504;48.810;9.172;2023-08-20T09:21:55;105.60;;;3.90;;
8938;SDS011;4504;48.810;9.172;2023-08-20T09:24:32;106.57;;;4.20;;
8938;SDS011;4504;48.810;9.172;2023-08-20T09:27:01;106.40;;;3.93;;
8938;SDS011;4504;48.810;9.172;2023-08-20T09:29:32;106.73;;;3.70;;
8938;SDS011;4504;48.810;9.172;2023-08-20T09:32:00;105.90;;;4.13;;
8938;SDS011;4504;48.810;9.172;2023-08-20T09:34:37;106.97;;;3.70;;
8938;SDS011;4504;48.810;9.172;2023-08-20T09:37:07;107.20;;;4.37;;
8938;SDS011;4504;48.810;9.172;2023-08-20T09:39:35;107.17;;;4.53;;
8938;SDS011;4504;48.810;9.172;2023-08-20T09:42:02;106.67;;;3.80;;
8938;SDS011;4504;48.810;9.172;2023-08-20T09:44:33;106.97;;;3.50;;
8938;SDS011;4504;48.810;9.172;2023-08-20T09:47:01;108.10;;;3.87;;
8938;SDS011;4504;48.810;9.172;2023-08-20T09:49:31;106.03;;;4.20;;
8938;SDS011;4504;48.810;9.172;2023-08-20T09:52:03;109.07;;;4.07;;
8938;SDS011;4504;48.810;9.172;2023-08-20T09:54:42;106.77;;;4.10;;
8938;SDS011;4504;48.810;9.172;2023-08-20T09:57:19;106.20;;;4.13;;
8938;SDS011;4504;48.810;9.172;2023-08-20T09:59:55;105.70;;;4.00;;
8938;SDS011;4504;48.810;9.172;2023-08-20T10:02:22;104.60;;;3.83;;
8938;SDS011;4504;48.810;9.172;2023-08-20T10:04:51;105.90;;;4.30;;
8938;SDS011;4504;48.810;9.172;2023-08-20T10:07:19;104.67;;;3.53;;
8938;SDS011;4504;48.810;9.172;2023-08-20T10:09:47;107.87;;;3.47;;
8938;SDS011;4504;48.810;9.172;2023-08-20T10:12:16;105.07;;;3.80;;
8938;SDS011;4504;48.810;9.172;2023-08-20T10:14:43;106.67;;;4.07;;
8938;SDS011;4504;48.810;9.172;2023-08-20T10:17:12;104.97;;;4.00;;
8938;SDS011;4504;48.810;9.172;2023-08-20T10:19:40;109.40;;;4.30;;
8938;SDS011;4504;48.810;9.172;2023-08-20T10:22:08;105.87;;;3.43;;
8938;SDS011;4504;48.810;9.172;2023-08-20T10:24:40;104.50;;;3.50;;
8938;SDS011;4504;48.810;9.172;2023-08-20T10:27:08;104.47;;;3.73;;
8938;SDS011;4504;48.810;9.172;2023-08-20T10:29:36;105.37;;;3.93;;
8938;SDS011;4504;48.810;9.172;2023-08-20T10:32:05;106.07;;;3.70;;
8938;SDS011;4504;48.810;9.172;2023-08-20T10:34:36;107.43;;;3.33;;
8938;SDS011;4504;48.810;9.172;2023-08-20T10:37:08;108.10;;;3.70;;
8938;SDS011;4504;48.810;9.172;2023-08-20T10:41:50;106.97;;;3.90;;
8938;SDS011;4504;48.810;9.172;2023-08-20T10:47:23;108.40;;;4.17;;
8938;SDS011;4504;48.810;9.172;2023-08-20T10:49:51;103.70;;;3.27;;
8938;SDS011;4504;48.810;9.172;2023-08-20T10:52:19;105.57;;;3.87;;
8938;SDS011;4504;48.810;9.172;2023-08-20T10:54:49;103.30;;;3.27;;
8938;SDS011;4504;48.810;9.172;2023-08-20T10:57:18;102.50;;;3.50;;
8938;SDS011;4504;48.810;9.172;2023-08-20T10:59:55;102.87;;;3.07;;
8938;SDS011;4504;48.810;9.172;2023-08-20T11:02:23;103.80;;;3.27;;
8938;SDS011;4504;48.810;9.172;2023-08-20T11:04:52;101.67;;;3.03;;
8938;SDS011;4504;48.810;9.172;2023-08-20T11:07:19;102.17;;;3.37;;
8938;SDS011;4504;48.810;9.172;2023-08-20T11:09:47;104.20;;;3.40;;
8938;SDS011;4504;48.810;9.172;2023-08-20T11:12:15;106.20;;;3.63;;
8938;SDS011;4504;48.810;9.172;2023-08-20T11:14:43;101.97;;;2.90;;
8938;SDS011;4504;48.810;9.172;2023-08-20T11:17:10;102.87;;;3.70;;
8938;SDS011;4504;48.810;9.172;2023-08-20T11:19:37;102.67;;;3.43;;
8938;SDS011;4504;48.810;9.172;2023-08-20T11:22:04;103.00;;;3.80;;
8938;SDS011;4504;48.810;9.172;2023-08-20T11:24:31;101.37;;;3.30;;
8938;SDS011;4504;48.810;9.172;2023-08-20T11:26:58;102.10;;;3.23;;
8938;SDS011;4504;48.810;9.172;2023-08-20T11:29:26;100.77;;;3.10;;
8938;SDS011;4504;48.810;9.172;2023-08-20T11:31:54;102.30;;;3.40;;
8938;SDS011;4504;48.810;9.172;2023-08-20T11:34:22;101.97;;;3.60;;
8938;SDS011;4504;48.810;9.172;2023-08-20T11:36:50;101.83;;;3.40;;
8938;SDS011;4504;48.810;9.172;2023-08-20T11:39:17;103.27;;;3.70;;
8938;SDS011;4504;48.810;9.172;2023-08-20T11:41:44;100.83;;;3.20;;
8938;SDS011;4504;48.810;9.172;2023-08-20T11:44:18;104.40;;;3.80;;
8938;SDS011;4504;48.810;9.172;2023-08-20T11:46:46;101.27;;;3.60;;
8938;SDS011;4504;48.810;9.172;2023-08-20T11:49:15;101.17;;;3.47;;
8938;SDS011;4504;48.810;9.172;2023-08-20T11:51:42;100.70;;;3.00;;
8938;SDS011;4504;48.810;9.172;2023-08-20T11:54:12;99.70;;;3.70;;
8938;SDS011;4504;48.810;9.172;2023-08-20T11:56:42;99.40;;;3.30;;
8938;SDS011;4504;48.810;9.172;2023-08-20T11:59:11;100.87;;;2.93;;
8938;SDS011;4504;48.810;9.172;2023-08-20T12:01:38;100.23;;;3.37;;
8938;SDS011;4504;48.810;9.172;2023-08-20T12:04:06;103.40;;;3.67;;
8938;SDS011;4504;48.810;9.172;2023-08-20T12:06:35;99.10;;;2.90;;
8938;SDS011;4504;48.810;9.172;2023-08-20T12:09:17;101.27;;;3.17;;
8938;SDS011;4504;48.810;9.172;2023-08-20T12:11:48;99.67;;;3.13;;
8938;SDS011;4504;48.810;9.172;2023-08-20T12:14:15;98.87;;;2.90;;
8938;SDS011;4504;48.810;9.172;2023-08-20T12:16:42;99.03;;;2.33;;
8938;SDS011;4504;48.810;9.172;2023-08-20T12:19:09;101.63;;;2.80;;
8938;SDS011;4504;48.810;9.172;2023-08-20T12:21:38;101.67;;;3.07;;
8938;SDS011;4504;48.810;9.172;2023-08-20T12:24:05;100.03;;;3.10;;
8938;SDS011;4504;48.810;9.172;2023-08-20T12:26:33;99.13;;;2.80;;
8938;SDS011;4504;48.810;9.172;2023-08-20T12:29:00;98.57;;;3.00;;
8938;SDS011;4504;48.810;9.172;2023-08-20T12:31:27;98.17;;;2.60;;
8938;SDS011;4504;48.810;9.172;2023-08-20T12:33:54;98.47;;;3.10;;
8938;SDS011;4504;48.810;9.172;2023-08-20T12:36:21;98.67;;;2.30;;
8938;SDS011;4504;48.810;9.172;2023-08-20T12:38:49;99.17;;;2.30;;
8938;SDS011;4504;48.810;9.172;2023-08-20T12:41:18;101.10;;;2.50;;
8938;SDS011;4504;48.810;9.172;2023-08-20T12:43:45;97.20;;;2.80;;
8938;SDS011;4504;48.810;9.172;2023-08-20T12:46:12;109.57;;;2.80;;
8938;SDS011;4504;48.810;9.172;2023-08-20T12:48:40;97.87;;;2.87;;
8938;SDS011;4504;48.810;9.172;2023-08-20T12:51:07;98.70;;;3.03;;
8938;SDS011;4504;48.810;9.172;2023-08-20T12:53:37;102.60;;;3.17;;
8938;SDS011;4504;48.810;9.172;2023-08-20T12:56:06;99.10;;;2.83;;
8938;SDS011;4504;48.810;9.172;2023-08-20T12:58:32;98.17;;;2.70;;
8938;SDS011;4504;48.810;9.172;2023-08-20T13:01:00;99.10;;;3.13;;
8938;SDS011;4504;48.810;9.172;2023-08-20T13:03:27;98.27;;;2.50;;
8938;SDS011;4504;48.810;9.172;2023-08-20T13:05:55;98.47;;;2.73;;
8938;SDS011;4504;48.810;9.172;2023-08-20T13:08:24;98.40;;;2.93;;
8938;SDS011;4504;48.810;9.172;2023-08-20T13:10:52;98.70;;;2.77;;
8938;SDS011;4504;48.810;9.172;2023-08-20T13:13:22;97.80;;;2.50;;
8938;SDS011;4504;48.810;9.172;2023-08-20T13:15:50;99.17;;;2.80;;
8938;SDS011;4504;48.810;9.172;2023-08-20T13:18:19;98.47;;;3.00;;
8938;SDS011;4504;48.810;9.172;2023-08-20T13:20:50;96.77;;;2.30;;
8938;SDS011;4504;48.810;9.172;2023-08-20T13:23:18;96.50;;;2.50;;
8938;SDS011;4504;48.810;9.172;2023-08-20T13:25:45;97.60;;;2.67;;
8938;SDS011;4504;48.810;9.172;2023-08-20T13:28:12;98.00;;;2.70;;
8938;SDS011;4504;48.810;9.172;2023-08-20T13:30:40;98.77;;;3.00;;
8938;SDS011;4504;48.810;9.172;2023-08-20T13:33:07;97.40;;;2.53;;
8938;SDS011;4504;48.810;9.172;2023-08-20T13:35:34;98.60;;;2.73;;
8938;SDS011;4504;48.810;9.172;2023-08-20T13:38:01;97.87;;;3.07;;
8938;SDS011;4504;48.810;9.172;2023-08-20T13:40:29;98.83;;;3.07;;
8938;SDS011;4504;48.810;9.172;2023-08-20T13:42:56;100.00;;;3.13;;
8938;SDS011;4504;48.810;9.172;2023-08-20T13:45:24;97.20;;;3.00;;
8938;SDS011;4504;48.810;9.172;2023-08-20T13:47:52;100.37;;;2.63;;
8938;SDS011;4504;48.810;9.172;2023-08-20T13:50:19;97.17;;;2.60;;
8938;SDS011;4504;48.810;9.172;2023-08-20T13:52:46;96.57;;;2.40;;
8938;SDS011;4504;48.810;9.172;2023-08-20T13:55:13;96.40;;;2.57;;
8938;SDS011;4504;48.810;9.172;2023-08-20T13:57:40;96.93;;;2.40;;
8938;SDS011;4504;48.810;9.172;2023-08-20T14:00:08;98.17;;;2.60;;
8938;SDS011;4504;48.810;9.172;2023-08-20T14:02:37;109.33;;;3.70;;
8938;SDS011;4504;48.810;9.172;2023-08-20T14:05:05;99.27;;;2.60;;
8938;SDS011;4504;48.810;9.172;2023-08-20T14:07:33;94.97;;;2.60;;
8938;SDS011;4504;48.810;9.172;2023-08-20T14:10:00;94.87;;;2.50;;
8938;SDS011;4504;48.810;9.172;2023-08-20T14:12:28;98.80;;;3.20;;
8938;SDS011;4504;48.810;9.172;2023-08-20T14:14:55;96.13;;;3.00;;
8938;SDS011;4504;48.810;9.172;2023-08-20T14:17:22;98.90;;;2.73;;
8938;SDS011;4504;48.810;9.172;2023-08-20T14:19:49;97.90;;;2.50;;
8938;SDS011;4504;48.810;9.172;2023-08-20T14:22:17;96.70;;;2.60;;
8938;SDS011;4504;48.810;9.172;2023-08-20T14:24:44;96.87;;;2.63;;
8938;SDS011;4504;48.810;9.172;2023-08-20T14:27:12;99.03;;;2.87;;
8938;SDS011;4504;48.810;9.172;2023-08-20T14:29:40;98.80;;;2.93;;
8938;SDS011;4504;48.810;9.172;2023-08-20T14:32:07;96.97;;;2.80;;
8938;SDS011;4504;48.810;9.172;2023-08-20T14:34:34;97.97;;;3.00;;
8938;SDS011;4504;48.810;9.172;2023-08-20T14:37:01;99.60;;;2.67;;
8938;SDS011;4504;48.810;9.172;2023-08-20T14:39:30;98.63;;;2.50;;
8938;SDS011;4504;48.810;9.172;2023-08-20T14:41:57;99.77;;;3.30;;
8938;SDS011;4504;48.810;9.172;2023-08-20T14:44:25;99.50;;;2.73;;
8938;SDS011;4504;48.810;9.172;2023-08-20T14:46:52;98.57;;;2.80;;
8938;SDS011;4504;48.810;9.172;2023-08-20T14:49:19;98.83;;;2.67;;
8938;SDS011;4504;48.810;9.172;2023-08-20T14:51:46;97.30;;;2.33;;
8938;SDS011;4504;48.810;9.172;2023-08-20T14:54:13;97.10;;;2.60;;
8938;SDS011;4504;48.810;9.172;2023-08-20T14:56:41;98.83;;;2.50;;
8938;SDS011;4504;48.810;9.172;2023-08-20T14:59:09;96.03;;;2.20;;
8938;SDS011;4504;48.810;9.172;2023-08-20T15:01:36;98.77;;;2.47;;